sensor_id;sensor_type;location;lat;lon;timestamp;pressure;altitude;pressure_sealevel;temperature;humidity
84990;BME280;75307;53.836;10.476;2024-03-23T00:52:36;100644.41;;;4.78;83.86
84990;BME280;75307;53.836;10.476;2024-03-23T00:54:37;100637.50;;;4.74;83.54
84990;BME280;75307;53.836;10.476;2024-03-23T00:56:39;100634.91;;;4.72;83.97
84990;BME280;75307;53.836;10.476;2024-03-23T00:58:39;100631.44;;;4.72;83.80
84990;BME280;75307;53.836;10.476;2024-03-23T01:00:41;100634.06;;;4.72;84.00
84990;BME280;75307;53.836;10.476;2024-03-23T01:02:42;100630.59;;;4.71;83.93
84990;BME280;75307;53.836;10.476;2024-03-23T01:04:44;100623.66;;;4.70;83.87
84990;BME280;75307;53.836;10.476;2024-03-23T01:06:44;100619.34;;;4.68;83.92
84990;BME280;75307;53.836;10.476;2024-03-23T01:08:48;100620.22;;;4.67;83.99
84990;BME280;75307;53.836;10.476;2024-03-23T01:10:54;100619.38;;;4.64;84.06
84990;BME280;75307;53.836;10.476;2024-03-23T01:12:56;100613.31;;;4.64;83.64
84990;BME280;75307;53.836;10.476;2024-03-23T01:14:56;100616.78;;;4.63;84.08
84990;BME280;75307;53.836;10.476;2024-03-23T01:16:58;100615.09;;;4.60;83.83
84990;BME280;75307;53.836;10.476;2024-03-23T01:18:59;100612.53;;;4.57;83.82
84990;BME280;75307;53.836;10.476;2024-03-23T01:21:00;100602.13;;;4.56;84.00
84990;BME280;75307;53.836;10.476;2024-03-23T01:23:01;100602.97;;;4.58;84.37
84990;BME280;75307;53.836;10.476;2024-03-23T01:25:05;100597.78;;;4.56;83.93
84990;BME280;75307;53.836;10.476;2024-03-23T01:27:05;100594.34;;;4.53;83.77
84990;BME280;75307;53.836;10.476;2024-03-23T01:29:07;100584.81;;;4.52;84.18
84990;BME280;75307;53.836;10.476;2024-03-23T01:31:08;100587.41;;;4.50;84.18
84990;BME280;75307;53.836;10.476;2024-03-23T01:33:10;100581.41;;;4.45;84.38
84990;BME280;75307;53.836;10.476;2024-03-23T01:35:11;100585.75;;;4.46;84.44
84990;BME280;75307;53.836;10.476;2024-03-23T01:37:11;100582.28;;;4.46;84.25
84990;BME280;75307;53.836;10.476;2024-03-23T01:39:13;100576.19;;;4.47;84.17
84990;BME280;75307;53.836;10.476;2024-03-23T01:41:16;100571.88;;;4.46;84.04
84990;BME280;75307;53.836;10.476;2024-03-23T01:43:18;100564.97;;;4.42;84.35
84990;BME280;75307;53.836;10.476;2024-03-23T01:45:19;100575.38;;;4.40;84.19
84990;BME280;75307;53.836;10.476;2024-03-23T01:47:21;100570.25;;;4.37;83.97
84990;BME280;75307;53.836;10.476;2024-03-23T01:49:22;100574.59;;;4.36;84.52
84990;BME280;75307;53.836;10.476;2024-03-23T01:51:23;100568.53;;;4.36;84.34
84990;BME280;75307;53.836;10.476;2024-03-23T01:53:25;100559.91;;;4.29;84.40
84990;BME280;75307;53.836;10.476;2024-03-23T01:55:27;100562.47;;;4.32;84.60
84990;BME280;75307;53.836;10.476;2024-03-23T01:57:29;100555.56;;;4.31;84.44
84990;BME280;75307;53.836;10.476;2024-03-23T01:59:31;100556.41;;;4.32;84.66
84990;BME280;75307;53.836;10.476;2024-03-23T02:01:32;100555.59;;;4.28;84.08
84990;BME280;75307;53.836;10.476;2024-03-23T02:03:34;100552.94;;;4.30;84.51
84990;BME280;75307;53.836;10.476;2024-03-23T02:05:35;100549.50;;;4.26;84.30
84990;BME280;75307;53.836;10.476;2024-03-23T02:07:37;100546.09;;;4.24;84.54
84990;BME280;75307;53.836;10.476;2024-03-23T02:09:38;100542.66;;;4.22;84.51
84990;BME280;75307;53.836;10.476;2024-03-23T02:11:40;100538.28;;;4.21;84.47
84990;BME280;75307;53.836;10.476;2024-03-23T02:13:42;100526.22;;;4.16;84.54
84990;BME280;75307;53.836;10.476;2024-03-23T02:15:43;100540.09;;;4.16;84.28
84990;BME280;75307;53.836;10.476;2024-03-23T02:17:44;100534.06;;;4.13;84.48
84990;BME280;75307;53.836;10.476;2024-03-23T02:19:46;100524.56;;;4.10;84.73
84990;BME280;75307;53.836;10.476;2024-03-23T02:21:47;100522.84;;;4.06;84.45
84990;BME280;75307;53.836;10.476;2024-03-23T02:23:50;100530.66;;;4.06;84.75
84990;BME280;75307;53.836;10.476;2024-03-23T02:25:51;100532.44;;;4.04;84.77
84990;BME280;75307;53.836;10.476;2024-03-23T02:27:53;100535.03;;;4.04;84.90
84990;BME280;75307;53.836;10.476;2024-03-23T02:29:54;100532.44;;;4.01;84.65
84990;BME280;75307;53.836;10.476;2024-03-23T02:31:56;100537.66;;;3.99;84.90
84990;BME280;75307;53.836;10.476;2024-03-23T02:33:56;100522.94;;;3.97;84.84
84990;BME280;75307;53.836;10.476;2024-03-23T02:35:58;100520.41;;;3.91;84.92
84990;BME280;75307;53.836;10.476;2024-03-23T02:37:59;100510.97;;;3.83;85.14
84990;BME280;75307;53.836;10.476;2024-03-23T02:40:02;100516.16;;;3.83;85.13
84990;BME280;75307;53.836;10.476;2024-03-23T02:42:03;100503.13;;;3.85;85.03
84990;BME280;75307;53.836;10.476;2024-03-23T02:44:05;100498.88;;;3.79;85.10
84990;BME280;75307;53.836;10.476;2024-03-23T02:46:06;100495.44;;;3.74;85.24
84990;BME280;75307;53.836;10.476;2024-03-23T02:48:08;100496.31;;;3.73;85.14
84990;BME280;75307;53.836;10.476;2024-03-23T02:50:09;100498.09;;;3.70;85.26
84990;BME280;75307;53.836;10.476;2024-03-23T02:52:10;100497.25;;;3.66;85.10
84990;BME280;75307;53.836;10.476;2024-03-23T02:54:11;100497.25;;;3.63;85.23
84990;BME280;75307;53.836;10.476;2024-03-23T02:56:14;100501.66;;;3.58;85.24
84990;BME280;75307;53.836;10.476;2024-03-23T02:58:16;100486.13;;;3.52;85.47
84990;BME280;75307;53.836;10.476;2024-03-23T03:00:18;100498.28;;;3.47;85.40
84990;BME280;75307;53.836;10.476;2024-03-23T03:02:20;100492.19;;;3.51;85.68
84990;BME280;75307;53.836;10.476;2024-03-23T03:04:21;100489.56;;;3.52;85.44
84990;BME280;75307;53.836;10.476;2024-03-23T03:06:23;100484.41;;;3.51;85.29
84990;BME280;75307;53.836;10.476;2024-03-23T03:08:24;100478.34;;;3.49;85.50
84990;BME280;75307;53.836;10.476;2024-03-23T03:10:26;100485.28;;;3.48;85.32
84990;BME280;75307;53.836;10.476;2024-03-23T03:12:28;100474.03;;;3.45;85.44
84990;BME280;75307;53.836;10.476;2024-03-23T03:14:29;100480.09;;;3.50;85.24
84990;BME280;75307;53.836;10.476;2024-03-23T03:16:30;100474.88;;;3.50;85.16
84990;BME280;75307;53.836;10.476;2024-03-23T03:18:31;100483.56;;;3.47;85.48
84990;BME280;75307;53.836;10.476;2024-03-23T03:20:32;100468.84;;;3.43;85.35
84990;BME280;75307;53.836;10.476;2024-03-23T03:22:35;100466.25;;;3.43;85.32
84990;BME280;75307;53.836;10.476;2024-03-23T03:24:35;100468.88;;;3.40;85.56
84990;BME280;75307;53.836;10.476;2024-03-23T03:26:37;100466.34;;;3.36;85.79
84990;BME280;75307;53.836;10.476;2024-03-23T03:28:39;100468.09;;;3.30;85.49
84990;BME280;75307;53.836;10.476;2024-03-23T03:30:41;100469.84;;;3.28;85.95
84990;BME280;75307;53.836;10.476;2024-03-23T03:32:41;100460.38;;;3.26;85.58
84990;BME280;75307;53.836;10.476;2024-03-23T03:34:43;100463.84;;;3.23;85.40
84990;BME280;75307;53.836;10.476;2024-03-23T03:36:44;100462.13;;;3.19;85.59
84990;BME280;75307;53.836;10.476;2024-03-23T03:38:46;100464.69;;;3.21;85.77
84990;BME280;75307;53.836;10.476;2024-03-23T03:40:47;100456.06;;;3.22;85.62
84990;BME280;75307;53.836;10.476;2024-03-23T03:42:49;100456.09;;;3.17;85.80
84990;BME280;75307;53.836;10.476;2024-03-23T03:44:51;100451.78;;;3.15;85.83
84990;BME280;75307;53.836;10.476;2024-03-23T03:46:52;100450.94;;;3.11;85.64
84990;BME280;75307;53.836;10.476;2024-03-23T03:48:54;100455.25;;;3.11;86.17
84990;BME280;75307;53.836;10.476;2024-03-23T03:50:55;100444.06;;;3.07;85.63
84990;BME280;75307;53.836;10.476;2024-03-23T03:52:57;100449.25;;;3.04;86.06
84990;BME280;75307;53.836;10.476;2024-03-23T03:55:01;100442.34;;;3.01;86.03
84990;BME280;75307;53.836;10.476;2024-03-23T03:57:04;100448.44;;;3.02;85.74
84990;BME280;75307;53.836;10.476;2024-03-23T03:59:05;100441.47;;;3.04;86.27
84990;BME280;75307;53.836;10.476;2024-03-23T04:01:08;100440.66;;;3.02;86.12
84990;BME280;75307;53.836;10.476;2024-03-23T04:03:09;100437.16;;;3.03;86.00
84990;BME280;75307;53.836;10.476;2024-03-23T04:05:11;100434.56;;;3.00;85.74
84990;BME280;75307;53.836;10.476;2024-03-23T04:07:11;100437.19;;;3.00;85.94
84990;BME280;75307;53.836;10.476;2024-03-23T04:09:12;100430.25;;;2.99;86.21
84990;BME280;75307;53.836;10.476;2024-03-23T04:11:15;100424.19;;;3.03;86.04
84990;BME280;75307;53.836;10.476;2024-03-23T04:13:16;100427.66;;;3.02;86.06
84990;BME280;75307;53.836;10.476;2024-03-23T04:15:18;100409.47;;;3.02;86.01
84990;BME280;75307;53.836;10.476;2024-03-23T04:17:20;100405.09;;;3.05;86.24
84990;BME280;75307;53.836;10.476;2024-03-23T04:19:22;100412.00;;;3.09;85.94
84990;BME280;75307;53.836;10.476;2024-03-23T04:21:23;100410.28;;;3.12;85.92
84990;BME280;75307;53.836;10.476;2024-03-23T04:23:24;100414.63;;;3.08;85.76
84990;BME280;75307;53.836;10.476;2024-03-23T04:25:25;100409.47;;;3.02;86.10
84990;BME280;75307;53.836;10.476;2024-03-23T04:27:27;100408.66;;;2.95;86.30
84990;BME280;75307;53.836;10.476;2024-03-23T04:29:28;100394.84;;;2.90;86.24
84990;BME280;75307;53.836;10.476;2024-03-23T04:31:29;100397.50;;;2.84;85.80
84990;BME280;75307;53.836;10.476;2024-03-23T04:33:33;100404.44;;;2.80;85.76
84990;BME280;75307;53.836;10.476;2024-03-23T04:35:35;100417.41;;;2.80;86.37
84990;BME280;75307;53.836;10.476;2024-03-23T04:37:36;100410.56;;;2.73;86.08
84990;BME280;75307;53.836;10.476;2024-03-23T04:39:37;100395.03;;;2.69;86.58
84990;BME280;75307;53.836;10.476;2024-03-23T04:41:38;100389.84;;;2.66;86.44
84990;BME280;75307;53.836;10.476;2024-03-23T04:43:40;100394.13;;;2.68;86.68
84990;BME280;75307;53.836;10.476;2024-03-23T04:45:41;100391.56;;;2.65;86.15
84990;BME280;75307;53.836;10.476;2024-03-23T04:47:43;100381.22;;;2.64;86.17
84990;BME280;75307;53.836;10.476;2024-03-23T04:49:46;100376.91;;;2.61;86.67
84990;BME280;75307;53.836;10.476;2024-03-23T04:51:47;100388.97;;;2.65;86.20
84990;BME280;75307;53.836;10.476;2024-03-23T04:53:48;100342.44;;;2.41;86.61
84990;BME280;75307;53.836;10.476;2024-03-23T04:55:49;100401.88;;;2.73;86.50
84990;BME280;75307;53.836;10.476;2024-03-23T04:57:51;100408.78;;;2.78;85.95
84990;BME280;75307;53.836;10.476;2024-03-23T04:59:52;100420.84;;;2.82;85.72
84990;BME280;75307;53.836;10.476;2024-03-23T05:01:53;100419.13;;;2.85;86.12
84990;BME280;75307;53.836;10.476;2024-03-23T05:03:54;100413.88;;;2.91;85.92
84990;BME280;75307;53.836;10.476;2024-03-23T05:05:57;100413.84;;;2.98;85.92
84990;BME280;75307;53.836;10.476;2024-03-23T05:07:58;100410.34;;;2.99;85.96
84990;BME280;75307;53.836;10.476;2024-03-23T05:10:00;100408.59;;;3.03;85.86
84990;BME280;75307;53.836;10.476;2024-03-23T05:12:01;100411.19;;;3.03;85.74
84990;BME280;75307;53.836;10.476;2024-03-23T05:14:02;100403.38;;;3.04;85.99
84990;BME280;75307;53.836;10.476;2024-03-23T05:16:04;100399.09;;;3.02;85.99
84990;BME280;75307;53.836;10.476;2024-03-23T05:18:06;100385.28;;;2.98;85.74
84990;BME280;75307;53.836;10.476;2024-03-23T05:20:07;100369.69;;;2.98;85.76
84990;BME280;75307;53.836;10.476;2024-03-23T05:22:11;100377.47;;;2.97;86.13
84990;BME280;75307;53.836;10.476;2024-03-23T05:24:12;100374.94;;;2.94;86.16
84990;BME280;75307;53.836;10.476;2024-03-23T05:26:13;100373.22;;;2.93;85.88
84990;BME280;75307;53.836;10.476;2024-03-23T05:28:14;100383.59;;;2.91;86.24
84990;BME280;75307;53.836;10.476;2024-03-23T05:30:16;100380.19;;;2.88;85.93
84990;BME280;75307;53.836;10.476;2024-03-23T05:32:16;100380.19;;;2.88;86.07
84990;BME280;75307;53.836;10.476;2024-03-23T05:34:18;100379.25;;;2.92;86.24
84990;BME280;75307;53.836;10.476;2024-03-23T05:36:19;100385.28;;;2.98;86.10
84990;BME280;75307;53.836;10.476;2024-03-23T05:38:22;100391.31;;;3.02;86.24
84990;BME280;75307;53.836;10.476;2024-03-23T05:40:22;100387.78;;;3.07;85.88
84990;BME280;75307;53.836;10.476;2024-03-23T05:42:24;100384.31;;;3.12;86.17
84990;BME280;75307;53.836;10.476;2024-03-23T05:44:25;100375.63;;;3.13;85.97
84990;BME280;75307;53.836;10.476;2024-03-23T05:46:27;100383.38;;;3.17;86.15
84990;BME280;75307;53.836;10.476;2024-03-23T05:48:28;100385.03;;;3.24;85.82
84990;BME280;75307;53.836;10.476;2024-03-23T05:50:30;100380.72;;;3.23;85.89
84990;BME280;75307;53.836;10.476;2024-03-23T05:52:31;100377.22;;;3.27;85.66
84990;BME280;75307;53.836;10.476;2024-03-23T05:54:34;100376.38;;;3.27;85.90
84990;BME280;75307;53.836;10.476;2024-03-23T05:56:35;100384.97;;;3.30;86.13
84990;BME280;75307;53.836;10.476;2024-03-23T05:58:36;100384.97;;;3.30;86.02
84990;BME280;75307;53.836;10.476;2024-03-23T06:00:37;100376.31;;;3.30;86.02
84990;BME280;75307;53.836;10.476;2024-03-23T06:02:39;100365.94;;;3.31;86.12
84990;BME280;75307;53.836;10.476;2024-03-23T06:04:39;100358.97;;;3.37;85.83
84990;BME280;75307;53.836;10.476;2024-03-23T06:06:41;100358.03;;;3.39;85.83
84990;BME280;75307;53.836;10.476;2024-03-23T06:08:42;100358.03;;;3.42;86.12
84990;BME280;75307;53.836;10.476;2024-03-23T06:10:44;100352.81;;;3.44;85.88
84990;BME280;75307;53.836;10.476;2024-03-23T06:12:46;100355.34;;;3.48;86.04
84990;BME280;75307;53.836;10.476;2024-03-23T06:14:47;100336.34;;;3.46;85.90
84990;BME280;75307;53.836;10.476;2024-03-23T06:16:50;100338.84;;;3.55;85.49
84990;BME280;75307;53.836;10.476;2024-03-23T06:18:51;100342.25;;;3.59;85.81
84990;BME280;75307;53.836;10.476;2024-03-23T06:20:52;100331.03;;;3.54;85.79
84990;BME280;75307;53.836;10.476;2024-03-23T06:22:53;100344.72;;;3.68;85.72
84990;BME280;75307;53.836;10.476;2024-03-23T06:24:55;100345.56;;;3.72;85.68
84990;BME280;75307;53.836;10.476;2024-03-23T06:26:57;100349.00;;;3.75;85.66
84990;BME280;75307;53.836;10.476;2024-03-23T06:28:58;100357.59;;;3.80;85.65
84990;BME280;75307;53.836;10.476;2024-03-23T06:30:59;100362.75;;;3.85;85.25
84990;BME280;75307;53.836;10.476;2024-03-23T06:33:01;100359.25;;;3.89;85.55
84990;BME280;75307;53.836;10.476;2024-03-23T06:35:02;100352.22;;;3.96;85.53
84990;BME280;75307;53.836;10.476;2024-03-23T06:37:08;100347.88;;;3.98;85.24
84990;BME280;75307;53.836;10.476;2024-03-23T06:39:10;100355.53;;;4.08;85.18
84990;BME280;75307;53.836;10.476;2024-03-23T06:41:14;100354.56;;;4.17;85.29
84990;BME280;75307;53.836;10.476;2024-03-23T06:43:17;100344.91;;;4.24;85.20
84990;BME280;75307;53.836;10.476;2024-03-23T06:45:18;100350.03;;;4.31;84.93
84990;BME280;75307;53.836;10.476;2024-03-23T06:47:23;100342.13;;;4.37;85.02
84990;BME280;75307;53.836;10.476;2024-03-23T06:49:25;100339.44;;;4.42;84.79
84990;BME280;75307;53.836;10.476;2024-03-23T06:51:26;100340.22;;;4.49;84.75
84990;BME280;75307;53.836;10.476;2024-03-23T06:53:27;100337.50;;;4.56;84.56
84990;BME280;75307;53.836;10.476;2024-03-23T06:55:28;100332.13;;;4.67;84.81
